EGNS

Isle of Man Airport

Airport
ICAO code
EGNS
IATA Code
IOM
Summary
ICAO Region
EUR
ICAO Territory
Location

Near Castletown, Isle of Man

Serving
Isle of Man
Elevation
52 ft
Coordinates
54° 4' 56" N , 4° 37' 37" W
KCC
Metar
Observation
EGNS 301020Z 19033G46KT 2500 +RA BKN007 OVC014 13/13 Q0992 NOSIG
Station
Isle Of Man / Ronaldsway Airport
Date/Time
2022-09-30 10:20:00
Wind direction
190°
Wind speed
33 kts
Lowest cloud amount
broken clouds
Temperature
13°C
Dew point
13°C
Humidity
100%
QNH
992 hPa
Weather condition
n/a

Description

Also formerly known as Ronaldsway Airport, the airport serves the whole of the Isle of Man, a self-governing British Crown Dependency.

Climatology

Temperate Marine climate/Oceanic climate (Köppen climate classification Cfb). Moderately cool summer and comparatively warm winter with a temperature range of only 14°C. Prevailing winds are south-westerly and whilst there is almost no risk of winter radiation fog or summer thunderstorms, the airport is exposed to a significant risk of advection fog between April and August.

Runways

Designator Length Width Surface Rops
17/35 903 27 ASP No/No
3/21 1255 46 ASP Yes/Yes
8/26 1837 46 ASP Yes/Yes

Airport map

Aerial View

SKYbrary Partners:

Safety knowledge contributed by: